Larkfield, California
Current Conditions -  °F | °C
As of 1:53 PM on Sunday 21 Dec 2014 (Local Time) from KSTS Reporting Station
Broken Clouds Broken Clouds  
Wind Chill: 18°   Ceiling: 1100
Heat Index: 18°   Visibility: 10mi
Dew Point: 15°   Wind: 3mph
Humidity: 84%   Direction: 100°E
Pressure: 30.25"   Gusts: NA
Location:  38.4891°N, 122.745°W
Report Text: KSTS 212153Z 10003KT 10SM BKN011 BKN028 18/15 A3025 RMK AO2 SLP237 T01780150
Loading
Personal Weather Stations






























Interactive Weather Map New forecast layout! Learn more

10-Day Weather Forecast

Advertisements
Track Severe Weather on mobile